This is the latest recevied weather packets stored in our database for station/object EA1DB-1. If no packets are shown the sender has not sent any weather packets the latest 10 day(s).
| Time | Temp. | Humidity | Pressure | Rain* | Wind** | Luminosity | Snow |
|---|---|---|---|---|---|---|---|
| 1777383105 | 26.67° C | 43% | 1004.3 hPa | 0 mm | - | - | - |
| 1777382481 | 26.67° C | 42% | 1004.4 hPa | 0 mm | - | - | - |
| 1777381905 | 26.67° C | 42% | 1004.4 hPa | 0 mm | - | - | - |
| 1777381281 | 26.67° C | 41% | 1004.6 hPa | 0 mm | - | - | - |
| 1777378305 | 26.11° C | 42% | 1005 hPa | 0 mm | - | - | - |
| 1777377106 | 26.11° C | 41% | 1005.2 hPa | 0 mm | - | - | - |
| 1777376501 | 26.67° C | 39% | 1005.2 hPa | 0 mm | - | - | - |
| 1777371105 | 25° C | 44% | 1005.7 hPa | 0 mm | - | - | - |
| 1777369281 | 23.89° C | 45% | 1005.9 hPa | 0 mm | - | - | - |
| 1777365681 | 21.11° C | 55% | 1006 hPa | 0 mm | - | - | - |
| 1777363281 | 19.44° C | 59% | 1006.1 hPa | 0 mm | - | - | - |
| 1777357904 | 17.22° C | 67% | 1006 hPa | 0 mm | - | - | - |
| 1777355505 | 16.67° C | 67% | 1005.6 hPa | 0 mm | - | - | - |
| 1777353681 | 17.78° C | 65% | 1005.9 hPa | 0 mm | - | - | - |
| 1777350081 | 17.78° C | 67% | 1006.1 hPa | 0 mm | - | - | - |
| 1777348304 | 18.33° C | 67% | 1006.3 hPa | 0 mm | - | - | - |
| 1777341145 | 17.78° C | 69% | 1006.9 hPa | 0 mm | - | - | - |
| 1777337525 | 18.89° C | 66% | 1007.3 hPa | 0 mm | - | - | - |
| 1777332081 | 20° C | 64% | 1007.5 hPa | 0 mm | - | - | - |
| 1777326705 | 21.67° C | 57% | 1008.1 hPa | 0 mm | - | - | - |
| 1777326121 | 21.67° C | 58% | 1008 hPa | 0 mm | - | - | - |
| 1777325505 | 21.67° C | 61% | 1008 hPa | 0 mm | - | - | - |
| 1777322481 | 21.67° C | 60% | 1008 hPa | 0 mm | - | - | - |
| 1777321905 | 21.67° C | 60% | 1007.8 hPa | 0 mm | - | - | - |
| 1777321280 | 21.67° C | 60% | 1007.9 hPa | 0 mm | - | - | - |
* Rain latest hour (hover to see other rain measurements)
** Current wind speed in m/s (hover to see current wind gust speed)